3°C Temp
-3°C Dewpoint
65% Humidity
Temperature
60 KM/H
37 MPH
32 KTS
40°
North East

Wind Speed
Partly Cloudy
Conditions
Pressure 1019.92 (hPa) - 30.12 (in)
Visibility 4.3 (mi) - 7.0 (km)

Current Conditions
LGAV
Location 12(km)
Metar :LGAV 250020Z 04032G44KT 7000 FEW006 BKN025 OVC070 03/M03 Q1020 NOSIG
Tue 25th January 02:20 am

Airport
  Metar Aviation API Data Provided by https://www.checkwx.com/ PHP scripts by weather34.com ©2022